Time;durP1;ratioP1;P1;durP2;ratioP2;P2;SDS_P1;SDS_P2;PMS_P1;PMS_P2;Temp;Humidity;BMP_temperature;BMP_pressure;BME280_temperature;BME280_humidity;BME280_pressure;Samples;Min_cycle;Max_cycle;Signal;HPM_P1;HPM_P2
2022/09/26 00:00:33;;;;;;;13.75;9.75;;;;;;;;;;5092723;28;20499;-77
2022/09/26 00:02:58;;;;;;;15.65;10.05;;;;;;;;;;5094813;28;20107;-77
2022/09/26 00:05:24;;;;;;;14.33;9.83;;;;;;;;;;5094452;28;20110;-76
2022/09/26 00:07:49;;;;;;;12.63;9.10;;;;;;;;;;5095390;28;20335;-77
2022/09/26 00:10:14;;;;;;;13.90;9.93;;;;;;;;;;5095395;28;20030;-77
2022/09/26 00:12:39;;;;;;;14.45;9.15;;;;;;;;;;5093102;28;20273;-78
2022/09/26 00:15:05;;;;;;;13.52;9.25;;;;;;;;;;5092966;28;20477;-77
2022/09/26 00:17:31;;;;;;;14.40;9.35;;;;;;;;;;5093078;28;20059;-77
2022/09/26 00:19:56;;;;;;;13.32;8.85;;;;;;;;;;5094788;28;20020;-77
2022/09/26 00:22:21;;;;;;;12.87;9.43;;;;;;;;;;5094436;28;20377;-77
2022/09/26 00:24:46;;;;;;;12.10;8.60;;;;;;;;;;5095232;28;20613;-77
2022/09/26 00:27:11;;;;;;;13.93;9.40;;;;;;;;;;5095418;28;20617;-77
2022/09/26 00:29:37;;;;;;;13.68;9.45;;;;;;;;;;5094408;28;20615;-76
2022/09/26 00:32:03;;;;;;;11.55;8.57;;;;;;;;;;5094074;28;20106;-77
2022/09/26 00:34:28;;;;;;;13.68;8.90;;;;;;;;;;5094164;28;20066;-77
2022/09/26 00:36:54;;;;;;;12.70;8.75;;;;;;;;;;5094099;28;20028;-77
2022/09/26 00:39:19;;;;;;;13.02;9.13;;;;;;;;;;5094177;28;20024;-77
2022/09/26 00:41:44;;;;;;;12.60;8.98;;;;;;;;;;5093733;28;20495;-77
2022/09/26 00:44:48;;;;;;;12.07;8.48;;;;;;;;;;5093939;28;20401;-77
2022/09/26 00:47:17;;;;;;;13.77;8.70;;;;;;;;;;5093738;28;20035;-75
2022/09/26 00:49:44;;;;;;;11.48;8.85;;;;;;;;;;5092609;28;20074;-77
2022/09/26 00:52:24;;;;;;;14.88;9.25;;;;;;;;;;5094353;28;20056;-77
2022/09/26 00:54:52;;;;;;;12.90;8.75;;;;;;;;;;5093288;28;20020;-77
2022/09/26 00:57:23;;;;;;;12.20;8.63;;;;;;;;;;5094237;28;20414;-76
2022/09/26 00:59:53;;;;;;;13.15;9.25;;;;;;;;;;5093652;28;20107;-78
2022/09/26 01:02:20;;;;;;;15.82;8.90;;;;;;;;;;5094064;28;20039;-78
2022/09/26 01:04:46;;;;;;;14.50;9.27;;;;;;;;;;5093696;28;20020;-76
2022/09/26 01:07:21;;;;;;;13.32;8.65;;;;;;;;;;5093377;28;20103;-77
2022/09/26 01:09:47;;;;;;;12.18;8.35;;;;;;;;;;5093219;28;20109;-77
2022/09/26 01:12:12;;;;;;;12.45;8.60;;;;;;;;;;5092869;28;20028;-77
2022/09/26 01:14:40;;;;;;;19.98;10.00;;;;;;;;;;5093529;28;20028;-77
2022/09/26 01:17:06;;;;;;;16.63;9.68;;;;;;;;;;5094064;28;20393;-77
2022/09/26 01:20:08;;;;;;;16.38;10.02;;;;;;;;;;5094166;28;20473;-77
2022/09/26 01:23:04;;;;;;;15.18;10.07;;;;;;;;;;5075656;28;20036;-77
2022/09/26 01:26:00;;;;;;;14.13;9.23;;;;;;;;;;5077049;28;20374;-77
2022/09/26 01:28:28;;;;;;;17.13;9.85;;;;;;;;;;5093810;28;20032;-77
2022/09/26 01:30:59;;;;;;;16.80;9.25;;;;;;;;;;5094157;28;20216;-77
2022/09/26 01:33:43;;;;;;;17.10;9.65;;;;;;;;;;5092640;28;20035;-77
2022/09/26 01:36:22;;;;;;;15.07;9.88;;;;;;;;;;5093719;28;20051;-77
2022/09/26 01:39:06;;;;;;;18.48;10.23;;;;;;;;;;5093633;28;20476;-77
2022/09/26 01:41:56;;;;;;;19.08;11.25;;;;;;;;;;5093660;28;20020;-78
2022/09/26 01:44:47;;;;;;;22.70;11.55;;;;;;;;;;5093661;28;20028;-78
2022/09/26 01:47:21;;;;;;;22.52;12.25;;;;;;;;;;5094121;28;20028;-78
2022/09/26 01:50:05;;;;;;;19.52;12.15;;;;;;;;;;5094045;28;20035;-78
2022/09/26 01:52:37;;;;;;;21.40;12.75;;;;;;;;;;5094061;28;20029;-78
2022/09/26 01:55:09;;;;;;;25.98;12.27;;;;;;;;;;5093839;28;20481;-78
2022/09/26 01:57:44;;;;;;;24.02;13.05;;;;;;;;;;5092227;28;20035;-78
2022/09/26 02:00:13;;;;;;;26.75;13.63;;;;;;;;;;5092348;28;20442;-78
2022/09/26 02:02:43;;;;;;;24.85;13.68;;;;;;;;;;5093537;28;20467;-77
2022/09/26 02:05:23;;;;;;;24.50;13.43;;;;;;;;;;5093645;28;20024;-78
2022/09/26 02:07:57;;;;;;;24.65;13.10;;;;;;;;;;5094538;28;20516;-78
2022/09/26 02:10:27;;;;;;;;;;;;;;;;;;5094123;28;20032;-77
2022/09/26 02:12:58;;;;;;;21.92;12.90;;;;;;;;;;5094310;28;20365;-78
2022/09/26 02:15:26;;;;;;;19.23;11.85;;;;;;;;;;5094247;28;20028;-78
2022/09/26 02:17:57;;;;;;;26.83;13.75;;;;;;;;;;5093961;28;20032;-78
2022/09/26 02:20:27;;;;;;;24.60;13.43;;;;;;;;;;5094218;28;20473;-77
2022/09/26 02:22:53;;;;;;;23.88;13.23;;;;;;;;;;5094203;28;20137;-79
2022/09/26 02:25:18;;;;;;;21.67;12.27;;;;;;;;;;5097233;28;20034;-78
2022/09/26 02:27:44;;;;;;;23.15;11.93;;;;;;;;;;5096186;28;20028;-78
2022/09/26 02:30:09;;;;;;;19.05;10.57;;;;;;;;;;5097687;28;20016;-78
2022/09/26 02:32:36;;;;;;;23.02;10.02;;;;;;;;;;5096552;28;20043;-78
2022/09/26 02:35:52;;;;;;;14.65;8.90;;;;;;;;;;5097030;28;20504;-77
2022/09/26 02:37:48;;;;;;;10.82;7.70;;;;;;;;;;5096216;28;20032;-77
2022/09/26 02:40:14;;;;;;;12.20;7.50;;;;;;;;;;5096068;28;20173;-77
2022/09/26 02:43:00;;;;;;;15.45;8.05;;;;;;;;;;5096090;28;20069;-77
2022/09/26 02:45:34;;;;;;;11.02;6.95;;;;;;;;;;5096015;28;20032;-77
2022/09/26 02:48:15;;;;;;;11.65;7.35;;;;;;;;;;5096072;28;20043;-77
2022/09/26 02:51:02;;;;;;;14.07;8.00;;;;;;;;;;5094574;28;20477;-77
2022/09/26 02:53:43;;;;;;;11.88;7.00;;;;;;;;;;5096036;28;20036;-77
2022/09/26 02:56:31;;;;;;;8.90;5.22;;;;;;;;;;5095118;28;20016;-77
2022/09/26 02:59:15;;;;;;;10.45;5.82;;;;;;;;;;5094471;28;20055;-77
2022/09/26 03:01:52;;;;;;;9.68;5.43;;;;;;;;;;5096069;28;20016;-77
2022/09/26 03:04:29;;;;;;;8.98;5.38;;;;;;;;;;5095948;28;20050;-77
2022/09/26 03:06:59;;;;;;;7.75;5.50;;;;;;;;;;5094369;28;20072;-77
2022/09/26 03:09:26;;;;;;;9.77;5.55;;;;;;;;;;5096233;28;20020;-78
2022/09/26 03:11:52;;;;;;;10.82;6.15;;;;;;;;;;5095945;28;20480;-77
2022/09/26 03:14:19;;;;;;;11.45;6.20;;;;;;;;;;5095397;28;20028;-77
2022/09/26 03:16:46;;;;;;;6.90;4.88;;;;;;;;;;5095438;28;20035;-77
2022/09/26 03:19:25;;;;;;;9.60;4.35;;;;;;;;;;5095292;28;20020;-77
2022/09/26 03:21:51;;;;;;;7.50;4.00;;;;;;;;;;5094886;28;20528;-78
2022/09/26 03:24:16;;;;;;;7.30;4.60;;;;;;;;;;5095813;28;20094;-77
2022/09/26 03:26:41;;;;;;;7.03;4.00;;;;;;;;;;5095678;28;20054;-77
2022/09/26 03:29:07;;;;;;;6.82;4.22;;;;;;;;;;5095210;28;20019;-77
2022/09/26 03:31:32;;;;;;;8.55;4.60;;;;;;;;;;5095042;28;20396;-77
2022/09/26 03:33:57;;;;;;;5.22;3.65;;;;;;;;;;5093855;28;20066;-77
2022/09/26 03:36:23;;;;;;;7.63;4.50;;;;;;;;;;5093362;28;20027;-78
2022/09/26 03:38:49;;;;;;;9.52;4.57;;;;;;;;;;5096535;28;20253;-78
2022/09/26 03:41:14;;;;;;;7.03;4.55;;;;;;;;;;5096171;28;20099;-78
2022/09/26 03:43:42;;;;;;;7.93;4.20;;;;;;;;;;5095671;28;20119;-77
2022/09/26 03:46:10;;;;;;;7.28;4.20;;;;;;;;;;5094753;28;20086;-77
2022/09/26 03:48:35;;;;;;;7.10;4.45;;;;;;;;;;5095713;28;20385;-78
2022/09/26 03:51:02;;;;;;;6.95;4.68;;;;;;;;;;5094670;28;20020;-77
2022/09/26 03:53:30;;;;;;;6.35;4.38;;;;;;;;;;5096008;28;20028;-78
2022/09/26 03:56:08;;;;;;;6.00;3.97;;;;;;;;;;5096559;28;20126;-78
2022/09/26 03:58:34;;;;;;;19.35;4.40;;;;;;;;;;5095071;28;20384;-78
2022/09/26 04:01:09;;;;;;;7.38;4.57;;;;;;;;;;5093472;28;20069;-78
2022/09/26 04:03:36;;;;;;;9.35;4.72;;;;;;;;;;5093513;28;20024;-77
2022/09/26 04:06:03;;;;;;;7.28;4.60;;;;;;;;;;5093473;28;20028;-77
2022/09/26 04:08:28;;;;;;;8.68;4.90;;;;;;;;;;5094656;28;20081;-77
2022/09/26 04:11:01;;;;;;;8.32;4.15;;;;;;;;;;5095096;28;20020;-78
2022/09/26 04:13:27;;;;;;;7.78;4.90;;;;;;;;;;5096139;28;20031;-78
2022/09/26 04:15:56;;;;;;;8.25;4.90;;;;;;;;;;5096071;28;20035;-78
2022/09/26 04:18:22;;;;;;;10.40;4.97;;;;;;;;;;5095568;28;20523;-77
2022/09/26 04:20:47;;;;;;;11.73;6.00;;;;;;;;;;5094392;28;20028;-76
2022/09/26 04:23:12;;;;;;;9.52;5.70;;;;;;;;;;5094055;28;20031;-77
2022/09/26 04:25:38;;;;;;;10.57;6.00;;;;;;;;;;5094053;28;20469;-77
2022/09/26 04:28:03;;;;;;;9.55;5.82;;;;;;;;;;5093090;28;20075;-77
2022/09/26 04:30:29;;;;;;;10.15;6.18;;;;;;;;;;5093897;28;20016;-77
2022/09/26 04:32:54;;;;;;;11.15;5.97;;;;;;;;;;5093960;28;20035;-77
2022/09/26 04:35:19;;;;;;;14.60;6.07;;;;;;;;;;5094159;28;20027;-77
2022/09/26 04:37:46;;;;;;;12.57;6.63;;;;;;;;;;5094365;28;20039;-77
2022/09/26 04:40:11;;;;;;;13.73;6.88;;;;;;;;;;5093779;28;20281;-77
2022/09/26 04:42:36;;;;;;;12.50;6.47;;;;;;;;;;5094064;28;20078;-77
2022/09/26 04:45:02;;;;;;;10.43;6.37;;;;;;;;;;5093586;28;20268;-77
2022/09/26 04:47:27;;;;;;;11.75;6.53;;;;;;;;;;5093623;28;20330;-77
2022/09/26 04:49:53;;;;;;;12.35;7.22;;;;;;;;;;5092562;28;20026;-78
2022/09/26 04:52:19;;;;;;;14.50;6.80;;;;;;;;;;5093673;28;20411;-77
2022/09/26 04:54:44;;;;;;;14.55;6.90;;;;;;;;;;5092262;28;20668;-77
2022/09/26 04:57:09;;;;;;;14.83;7.23;;;;;;;;;;5094138;28;20031;-76
2022/09/26 04:59:34;;;;;;;14.77;8.30;;;;;;;;;;5093397;28;20260;-76
2022/09/26 05:02:04;;;;;;;16.83;8.77;;;;;;;;;;5094045;28;20257;-76
2022/09/26 05:04:32;;;;;;;13.55;7.68;;;;;;;;;;5093968;28;20291;-76
2022/09/26 05:06:58;;;;;;;16.83;8.57;;;;;;;;;;5093620;28;20077;-77
2022/09/26 05:09:23;;;;;;;15.30;8.25;;;;;;;;;;5093654;28;20495;-78
2022/09/26 05:11:49;;;;;;;15.73;8.50;;;;;;;;;;5093763;28;20118;-76
2022/09/26 05:14:14;;;;;;;17.70;9.17;;;;;;;;;;5093585;28;20028;-76
2022/09/26 05:16:39;;;;;;;16.37;8.57;;;;;;;;;;5093155;28;20260;-76
2022/09/26 05:19:04;;;;;;;15.33;8.17;;;;;;;;;;5093537;28;20343;-76
2022/09/26 05:21:29;;;;;;;17.20;8.43;;;;;;;;;;5093094;28;20300;-77
2022/09/26 05:26:49;;;;;;;19.13;9.27;;;;;;;;;;5093423;28;20314;-77
2022/09/26 05:29:15;;;;;;;14.85;8.50;;;;;;;;;;5091694;28;20373;-77
2022/09/26 05:31:40;;;;;;;18.17;9.18;;;;;;;;;;5093222;28;20031;-77
2022/09/26 05:34:09;;;;;;;18.10;9.07;;;;;;;;;;5093364;28;20044;-76
2022/09/26 05:36:34;;;;;;;19.88;8.90;;;;;;;;;;5093032;28;20020;-77
2022/09/26 05:38:59;;;;;;;17.75;9.02;;;;;;;;;;5092965;28;20088;-76
2022/09/26 05:41:29;;;;;;;13.65;7.88;;;;;;;;;;5093050;28;20028;-78
2022/09/26 05:43:55;;;;;;;16.80;8.32;;;;;;;;;;5092856;28;20024;-76
2022/09/26 05:46:20;;;;;;;16.88;7.53;;;;;;;;;;5093237;28;20534;-77
2022/09/26 05:48:46;;;;;;;16.35;8.55;;;;;;;;;;5092836;28;20028;-75
2022/09/26 05:51:13;;;;;;;18.02;8.05;;;;;;;;;;5091800;28;20028;-76
2022/09/26 05:53:40;;;;;;;18.00;8.20;;;;;;;;;;5093005;28;20063;-77
2022/09/26 05:56:06;;;;;;;16.17;8.27;;;;;;;;;;5092034;28;20114;-77
2022/09/26 05:58:33;;;;;;;13.88;7.80;;;;;;;;;;5093809;28;20492;-75
2022/09/26 06:01:16;;;;;;;13.75;7.63;;;;;;;;;;5097229;28;20024;-76
2022/09/26 06:03:43;;;;;;;16.15;8.00;;;;;;;;;;5095640;28;20396;-78
2022/09/26 06:06:11;;;;;;;15.68;8.10;;;;;;;;;;5098705;28;20016;-78
2022/09/26 06:08:37;;;;;;;13.00;7.22;;;;;;;;;;5097877;28;20028;-77
2022/09/26 06:11:07;;;;;;;13.98;7.78;;;;;;;;;;5096924;28;20465;-77
2022/09/26 06:13:35;;;;;;;14.27;8.02;;;;;;;;;;5095539;28;20392;-77
2022/09/26 06:16:06;;;;;;;15.07;8.52;;;;;;;;;;5097092;28;20473;-78
2022/09/26 06:18:36;;;;;;;14.63;7.50;;;;;;;;;;5097149;28;20063;-77
2022/09/26 06:21:04;;;;;;;13.35;7.93;;;;;;;;;;5096688;28;20024;-77
2022/09/26 06:23:31;;;;;;;13.55;7.28;;;;;;;;;;5096573;28;20020;-77
2022/09/26 06:25:57;;;;;;;11.80;7.15;;;;;;;;;;5096527;28;20098;-77
2022/09/26 06:28:23;;;;;;;13.50;7.10;;;;;;;;;;5095106;28;20435;-77
2022/09/26 06:30:55;;;;;;;16.35;8.32;;;;;;;;;;5096491;28;20072;-78
2022/09/26 06:33:21;;;;;;;15.77;8.02;;;;;;;;;;5096571;28;20471;-78
2022/09/26 06:35:47;;;;;;;12.55;8.23;;;;;;;;;;5095026;28;20058;-77
2022/09/26 06:38:12;;;;;;;13.02;7.22;;;;;;;;;;5096253;28;20031;-77
2022/09/26 06:40:40;;;;;;;13.40;7.43;;;;;;;;;;5094792;28;20024;-78
2022/09/26 06:43:05;;;;;;;13.25;6.90;;;;;;;;;;5096349;28;20453;-78
2022/09/26 06:45:30;;;;;;;14.13;7.20;;;;;;;;;;5094696;28;20047;-77
2022/09/26 06:48:00;;;;;;;13.53;7.40;;;;;;;;;;5094708;28;20252;-77
2022/09/26 06:50:25;;;;;;;12.98;7.03;;;;;;;;;;5095319;28;20325;-78
2022/09/26 06:52:50;;;;;;;11.80;7.40;;;;;;;;;;5096067;28;20488;-77
2022/09/26 06:55:16;;;;;;;12.65;7.50;;;;;;;;;;5094635;28;20024;-77
2022/09/26 06:57:42;;;;;;;10.38;7.10;;;;;;;;;;5095837;28;20024;-77
2022/09/26 07:00:11;;;;;;;11.90;7.00;;;;;;;;;;5096103;28;20392;-77
2022/09/26 07:02:36;;;;;;;13.32;7.20;;;;;;;;;;5095749;28;20158;-77
2022/09/26 07:05:04;;;;;;;11.20;6.90;;;;;;;;;;5096389;28;20110;-77
2022/09/26 07:07:31;;;;;;;11.60;7.10;;;;;;;;;;5095614;28;20043;-77
2022/09/26 07:09:57;;;;;;;16.45;7.13;;;;;;;;;;5093596;28;20397;-78
2022/09/26 07:12:23;;;;;;;11.10;7.40;;;;;;;;;;5095109;28;20027;-77
2022/09/26 07:14:50;;;;;;;12.10;6.80;;;;;;;;;;5095551;28;20450;-78
2022/09/26 07:17:16;;;;;;;14.23;6.70;;;;;;;;;;5095454;28;20073;-78
2022/09/26 07:19:41;;;;;;;9.50;6.03;;;;;;;;;;5095402;28;20020;-77
2022/09/26 07:22:08;;;;;;;9.60;5.90;;;;;;;;;;5095524;28;20028;-77
2022/09/26 07:24:33;;;;;;;10.88;6.28;;;;;;;;;;5094127;28;20020;-78
2022/09/26 07:27:00;;;;;;;10.80;6.70;;;;;;;;;;5095782;28;20027;-78
2022/09/26 07:29:25;;;;;;;12.93;6.63;;;;;;;;;;5095219;28;20028;-77
2022/09/26 07:31:50;;;;;;;12.60;6.70;;;;;;;;;;5093933;28;20035;-77
2022/09/26 07:34:16;;;;;;;10.10;6.97;;;;;;;;;;5095282;28;20031;-77
2022/09/26 07:36:41;;;;;;;13.17;6.83;;;;;;;;;;5095038;28;20256;-77
2022/09/26 07:39:06;;;;;;;13.63;6.80;;;;;;;;;;5095139;28;20272;-77
2022/09/26 07:41:31;;;;;;;11.85;6.47;;;;;;;;;;5094900;28;20125;-77
2022/09/26 07:43:57;;;;;;;12.45;6.03;;;;;;;;;;5093520;28;20027;-77
2022/09/26 07:51:54;;;;;;;10.38;5.45;;;;;;;;;;5095205;28;20031;-78
2022/09/26 07:54:19;;;;;;;12.10;5.80;;;;;;;;;;5094025;28;20028;-77
2022/09/26 07:56:44;;;;;;;9.00;5.43;;;;;;;;;;5094188;28;20472;-78
2022/09/26 07:59:09;;;;;;;9.63;4.70;;;;;;;;;;5093836;28;20027;-78
2022/09/26 08:01:37;;;;;;;8.67;5.20;;;;;;;;;;5093954;28;20261;-78
2022/09/26 08:04:02;;;;;;;9.32;4.93;;;;;;;;;;5094856;28;20261;-77
2022/09/26 08:06:31;;;;;;;15.68;5.40;;;;;;;;;;5094926;28;20115;-78
2022/09/26 08:08:57;;;;;;;8.48;5.25;;;;;;;;;;5094902;28;20020;-77
2022/09/26 08:11:22;;;;;;;16.73;8.00;;;;;;;;;;5094887;28;20123;-78
2022/09/26 08:13:48;;;;;;;13.68;9.68;;;;;;;;;;5095232;28;20023;-77
2022/09/26 08:16:19;;;;;;;9.95;5.75;;;;;;;;;;5095977;28;20413;-78
2022/09/26 08:18:44;;;;;;;8.50;5.38;;;;;;;;;;5096093;28;20063;-77
2022/09/26 08:21:10;;;;;;;9.18;4.80;;;;;;;;;;5096065;28;20024;-78
2022/09/26 08:23:35;;;;;;;6.95;4.72;;;;;;;;;;5095568;28;20031;-77
2022/09/26 08:26:05;;;;;;;9.05;5.13;;;;;;;;;;5095957;28;20028;-77
2022/09/26 08:28:31;;;;;;;7.80;4.80;;;;;;;;;;5094548;28;20130;-77
2022/09/26 08:30:59;;;;;;;6.22;4.43;;;;;;;;;;5093663;28;20059;-77
2022/09/26 08:33:25;;;;;;;9.65;4.50;;;;;;;;;;5094739;28;20033;-77
2022/09/26 08:35:50;;;;;;;8.10;5.05;;;;;;;;;;5094936;28;20047;-77
2022/09/26 08:38:16;;;;;;;13.05;4.97;;;;;;;;;;5093398;28;20154;-77
2022/09/26 08:40:56;;;;;;;7.30;5.22;;;;;;;;;;5093468;28;20028;-77
2022/09/26 08:43:43;;;;;;;11.00;4.88;;;;;;;;;;5095013;28;20042;-77
2022/09/26 08:46:38;;;;;;;6.32;4.68;;;;;;;;;;5094588;28;20024;-77
2022/09/26 08:49:24;;;;;;;7.38;4.50;;;;;;;;;;5094606;28;20396;-77
2022/09/26 08:51:52;;;;;;;7.35;4.95;;;;;;;;;;5093343;28;20036;-77
2022/09/26 08:54:37;;;;;;;7.25;4.80;;;;;;;;;;5094051;28;20019;-78
2022/09/26 08:57:14;;;;;;;8.15;4.80;;;;;;;;;;5095679;28;20478;-78
2022/09/26 08:59:42;;;;;;;8.63;4.65;;;;;;;;;;5095206;28;20043;-77
2022/09/26 09:02:17;;;;;;;8.27;4.57;;;;;;;;;;5094431;28;20020;-77
2022/09/26 09:04:56;;;;;;;8.25;4.70;;;;;;;;;;5093582;28;20035;-77
2022/09/26 09:07:23;;;;;;;6.97;4.45;;;;;;;;;;5095369;28;20028;-77
2022/09/26 09:09:52;;;;;;;6.85;4.57;;;;;;;;;;5095690;28;20431;-77
2022/09/26 09:12:53;;;;;;;7.10;4.20;;;;;;;;;;5094137;28;20476;-77
2022/09/26 09:15:47;;;;;;;8.02;4.65;;;;;;;;;;5095022;28;20020;-77
2022/09/26 09:18:30;;;;;;;7.05;3.50;;;;;;;;;;5053726;28;20381;-77
2022/09/26 09:21:11;;;;;;;6.90;3.90;;;;;;;;;;5094986;28;20535;-77
2022/09/26 09:23:51;;;;;;;8.80;4.78;;;;;;;;;;5094702;28;20031;-78
2022/09/26 09:26:28;;;;;;;11.18;4.60;;;;;;;;;;5092710;28;20020;-77
2022/09/26 09:29:24;;;;;;;7.97;4.25;;;;;;;;;;5094145;28;20024;-77
2022/09/26 09:31:52;;;;;;;7.90;4.25;;;;;;;;;;5093057;28;20374;-77
2022/09/26 09:34:26;;;;;;;9.32;4.50;;;;;;;;;;5095573;28;20031;-77
2022/09/26 09:36:57;;;;;;;10.10;4.05;;;;;;;;;;5098243;28;20499;-77
2022/09/26 09:39:32;;;;;;;7.18;3.97;;;;;;;;;;5098337;28;20030;-77
2022/09/26 09:42:04;;;;;;;8.73;4.03;;;;;;;;;;5096481;28;20043;-77
2022/09/26 09:44:45;;;;;;;7.38;3.78;;;;;;;;;;5097305;28;20032;-77
2022/09/26 09:47:14;;;;;;;8.07;3.88;;;;;;;;;;5097478;28;20036;-77
2022/09/26 09:49:41;;;;;;;5.85;3.63;;;;;;;;;;5098564;28;20023;-77
2022/09/26 09:52:12;;;;;;;6.28;3.88;;;;;;;;;;5097321;28;20036;-77
2022/09/26 09:55:07;;;;;;;6.13;3.75;;;;;;;;;;5098653;28;20063;-77
2022/09/26 09:57:52;;;;;;;9.13;3.58;;;;;;;;;;5096805;28;20109;-78
2022/09/26 10:00:22;;;;;;;4.90;3.03;;;;;;;;;;5095564;28;20542;-77
2022/09/26 10:03:00;;;;;;;7.07;3.00;;;;;;;;;;5095415;28;20118;-77
2022/09/26 10:05:45;;;;;;;3.08;1.30;;;;;;;;;;5095570;28;20035;-78
2022/09/26 10:08:17;;;;;;;3.13;1.20;;;;;;;;;;5096889;28;20028;-77
2022/09/26 10:10:58;;;;;;;2.28;1.30;;;;;;;;;;5096610;28;20036;-77
2022/09/26 10:13:25;;;;;;;3.80;1.60;;;;;;;;;;5096519;28;20020;-77
2022/09/26 10:15:57;;;;;;;17.95;5.55;;;;;;;;;;5096570;28;20181;-77
2022/09/26 10:18:23;;;;;;;5.88;1.60;;;;;;;;;;5096770;28;20408;-76
2022/09/26 10:20:52;;;;;;;3.42;1.42;;;;;;;;;;5095175;28;20031;-77
2022/09/26 10:23:38;;;;;;;3.72;1.38;;;;;;;;;;5095113;28;20028;-77
2022/09/26 10:26:06;;;;;;;2.60;1.20;;;;;;;;;;5096405;28;20040;-77
2022/09/26 10:28:43;;;;;;;3.95;1.73;;;;;;;;;;5096261;28;20374;-77
2022/09/26 10:31:11;;;;;;;3.33;1.15;;;;;;;;;;5095217;28;20035;-77
2022/09/26 10:33:43;;;;;;;4.72;1.10;;;;;;;;;;5096250;28;20074;-77
2022/09/26 10:36:20;;;;;;;2.08;1.10;;;;;;;;;;5094911;28;20028;-77
2022/09/26 10:41:46;;;;;;;1.90;1.00;;;;;;;;;;5096693;28;20422;-77
2022/09/26 10:44:21;;;;;;;3.17;1.10;;;;;;;;;;5095947;28;20111;-77
2022/09/26 10:46:50;;;;;;;2.95;1.10;;;;;;;;;;5096325;28;20024;-77
2022/09/26 10:49:17;;;;;;;3.08;1.20;;;;;;;;;;5095225;28;20504;-76
2022/09/26 10:51:49;;;;;;;3.95;1.27;;;;;;;;;;5095778;28;20035;-77
2022/09/26 10:54:22;;;;;;;3.92;1.30;;;;;;;;;;5095917;28;20020;-77
2022/09/26 10:56:53;;;;;;;3.45;1.08;;;;;;;;;;5094601;28;20389;-77
2022/09/26 10:59:24;;;;;;;3.85;1.35;;;;;;;;;;5095825;28;20451;-77
2022/09/26 11:01:54;;;;;;;4.55;1.23;;;;;;;;;;5094509;28;20035;-76
2022/09/26 11:07:25;;;;;;;2.63;1.20;;;;;;;;;;5096542;28;20412;-77
2022/09/26 11:09:51;;;;;;;2.60;1.00;;;;;;;;;;5095697;28;20100;-77
2022/09/26 11:12:24;;;;;;;3.80;1.15;;;;;;;;;;5095713;28;20032;-77
2022/09/26 11:15:04;;;;;;;4.13;1.00;;;;;;;;;;5094277;28;20519;-77
2022/09/26 11:17:49;;;;;;;2.53;1.20;;;;;;;;;;5096036;28;20032;-77
2022/09/26 11:20:31;;;;;;;1.70;1.00;;;;;;;;;;5094949;28;20496;-76
2022/09/26 11:23:18;;;;;;;2.65;1.00;;;;;;;;;;5095572;28;20032;-77
2022/09/26 11:26:07;;;;;;;1.98;0.90;;;;;;;;;;5095311;28;20111;-77
2022/09/26 11:28:39;;;;;;;1.73;0.80;;;;;;;;;;5095088;28;20103;-76
2022/09/26 11:31:16;;;;;;;2.90;0.88;;;;;;;;;;5094020;28;20024;-76
2022/09/26 11:33:43;;;;;;;2.35;0.85;;;;;;;;;;5095037;28;20460;-76
2022/09/26 11:36:21;;;;;;;1.60;0.75;;;;;;;;;;5095221;28;20156;-76
2022/09/26 11:38:55;;;;;;;4.70;0.90;;;;;;;;;;5093826;28;20028;-77
2022/09/26 11:41:39;;;;;;;2.80;0.90;;;;;;;;;;5093861;28;20027;-76
2022/09/26 11:44:31;;;;;;;7.00;1.05;;;;;;;;;;5094041;28;20077;-77
2022/09/26 11:47:01;;;;;;;3.33;0.82;;;;;;;;;;5095325;28;20034;-76
2022/09/26 11:49:48;;;;;;;4.18;1.00;;;;;;;;;;5095124;28;20151;-76
2022/09/26 11:52:35;;;;;;;2.92;0.82;;;;;;;;;;5093929;28;20023;-77
2022/09/26 11:55:39;;;;;;;3.22;0.80;;;;;;;;;;5095362;28;20154;-77
2022/09/26 11:58:13;;;;;;;1.40;0.80;;;;;;;;;;5095370;28;20508;-77
2022/09/26 12:00:45;;;;;;;2.05;0.90;;;;;;;;;;5094081;28;20378;-77
2022/09/26 12:03:26;;;;;;;3.55;0.90;;;;;;;;;;5095740;28;20016;-78
2022/09/26 12:06:06;;;;;;;7.10;1.30;;;;;;;;;;5094373;28;20031;-77
2022/09/26 12:08:51;;;;;;;2.55;0.63;;;;;;;;;;5095837;28;20088;-78
2022/09/26 12:11:42;;;;;;;7.55;1.20;;;;;;;;;;5095779;28;20478;-77
2022/09/26 12:14:35;;;;;;;1.60;0.80;;;;;;;;;;5095584;28;20046;-77
2022/09/26 12:17:19;;;;;;;4.40;1.05;;;;;;;;;;5095414;28;20026;-77
2022/09/26 12:19:59;;;;;;;3.03;1.02;;;;;;;;;;5095044;28;20389;-76
2022/09/26 12:22:57;;;;;;;2.20;0.90;;;;;;;;;;5094471;28;20055;-76
2022/09/26 12:25:48;;;;;;;6.40;0.80;;;;;;;;;;5094514;28;20111;-75
2022/09/26 12:28:29;;;;;;;1.52;0.93;;;;;;;;;;5093106;28;20035;-76
2022/09/26 12:31:12;;;;;;;2.80;1.05;;;;;;;;;;5094446;28;20026;-76
2022/09/26 12:34:15;;;;;;;3.08;0.88;;;;;;;;;;5094262;28;20020;-76
2022/09/26 12:37:00;;;;;;;6.63;1.17;;;;;;;;;;5092819;28;20370;-77
2022/09/26 12:39:49;;;;;;;3.10;0.90;;;;;;;;;;5092780;28;20066;-77
2022/09/26 12:42:39;;;;;;;0.90;0.70;;;;;;;;;;5092628;28;20115;-77
2022/09/26 12:45:32;;;;;;;1.60;0.82;;;;;;;;;;5093696;28;20544;-77
2022/09/26 12:48:16;;;;;;;2.30;1.10;;;;;;;;;;5092723;28;20439;-77
2022/09/26 12:51:15;;;;;;;2.63;0.82;;;;;;;;;;5093626;28;20024;-77
2022/09/26 12:54:17;;;;;;;1.33;0.70;;;;;;;;;;5092278;28;20397;-77
2022/09/26 12:56:48;;;;;;;1.13;0.77;;;;;;;;;;5062418;28;20380;-77
2022/09/26 12:59:21;;;;;;;2.60;0.77;;;;;;;;;;5093460;28;20047;-77
2022/09/26 13:02:15;;;;;;;1.83;0.80;;;;;;;;;;5093929;28;20085;-76
2022/09/26 13:05:02;;;;;;;2.17;0.80;;;;;;;;;;5093857;28;20483;-77
2022/09/26 13:07:53;;;;;;;2.45;0.70;;;;;;;;;;5092126;28;20060;-77
2022/09/26 13:10:33;;;;;;;1.95;0.70;;;;;;;;;;5092130;28;20020;-77
2022/09/26 13:13:22;;;;;;;1.58;0.63;;;;;;;;;;5093626;28;20039;-76
2022/09/26 13:16:03;;;;;;;1.88;0.73;;;;;;;;;;5092610;28;20171;-77
2022/09/26 13:18:38;;;;;;;1.88;0.60;;;;;;;;;;5093852;28;20051;-77
2022/09/26 13:21:12;;;;;;;0.85;0.65;;;;;;;;;;5092171;28;20020;-76
2022/09/26 13:23:42;;;;;;;1.30;0.77;;;;;;;;;;5093311;28;20024;-77
2022/09/26 13:26:15;;;;;;;3.10;0.70;;;;;;;;;;5093420;28;20028;-76
2022/09/26 13:28:55;;;;;;;1.95;0.60;;;;;;;;;;5093105;28;20028;-77
2022/09/26 13:31:27;;;;;;;1.52;0.50;;;;;;;;;;5093464;28;20035;-77
2022/09/26 13:34:02;;;;;;;0.75;0.60;;;;;;;;;;5091728;28;20028;-76
2022/09/26 13:36:30;;;;;;;0.50;0.50;;;;;;;;;;5091796;28;20020;-77
2022/09/26 13:39:22;;;;;;;0.90;0.65;;;;;;;;;;5093054;28;20073;-77
2022/09/26 13:42:30;;;;;;;1.67;0.60;;;;;;;;;;5094021;28;20036;-77
2022/09/26 13:45:19;;;;;;;4.32;1.20;;;;;;;;;;5070454;28;20036;-77
2022/09/26 13:48:12;;;;;;;1.42;0.70;;;;;;;;;;5093679;28;20016;-77
2022/09/26 13:50:46;;;;;;;6.53;0.82;;;;;;;;;;5093370;28;20024;-77
2022/09/26 13:53:31;;;;;;;1.35;0.80;;;;;;;;;;5093204;28;20506;-77
2022/09/26 13:56:34;;;;;;;2.25;0.73;;;;;;;;;;5093382;28;20032;-77
2022/09/26 13:59:03;;;;;;;2.75;0.60;;;;;;;;;;5093404;28;20439;-77
2022/09/26 14:01:28;;;;;;;1.50;0.70;;;;;;;;;;5093507;28;20074;-77
2022/09/26 14:04:18;;;;;;;2.95;0.95;;;;;;;;;;5092038;28;20020;-77
2022/09/26 14:07:02;;;;;;;1.67;1.00;;;;;;;;;;5093391;28;20048;-77
2022/09/26 14:09:39;;;;;;;;;;;;;;;;;;5093709;28;20067;-77
2022/09/26 14:12:48;;;;;;;1.15;0.52;;;;;;;;;;5093770;28;19919;-77
2022/09/26 14:15:27;;;;;;;1.15;0.55;;;;;;;;;;5093503;28;20067;-76
2022/09/26 14:18:12;;;;;;;1.58;0.70;;;;;;;;;;5093060;28;20421;-77
2022/09/26 14:20:53;;;;;;;1.00;0.60;;;;;;;;;;5094631;28;20028;-76
2022/09/26 14:23:35;;;;;;;1.67;0.50;;;;;;;;;;5096769;28;20081;-76
2022/09/26 14:26:26;;;;;;;0.60;0.57;;;;;;;;;;5096812;28;20023;-76
2022/09/26 14:28:54;;;;;;;1.83;0.80;;;;;;;;;;5096400;28;20124;-77
2022/09/26 14:31:25;;;;;;;1.80;0.70;;;;;;;;;;5096270;28;20024;-77
2022/09/26 14:34:09;;;;;;;1.92;0.65;;;;;;;;;;5096381;28;20024;-77
2022/09/26 14:36:35;;;;;;;3.20;0.73;;;;;;;;;;5097222;28;20027;-77
2022/09/26 14:39:02;;;;;;;1.45;0.70;;;;;;;;;;5097130;28;20032;-76
2022/09/26 14:41:30;;;;;;;2.75;0.70;;;;;;;;;;5096097;28;20028;-77
2022/09/26 14:44:03;;;;;;;1.00;0.65;;;;;;;;;;5095842;28;20559;-77
2022/09/26 14:46:31;;;;;;;1.08;0.60;;;;;;;;;;5096165;28;20096;-77
2022/09/26 14:49:04;;;;;;;1.30;0.50;;;;;;;;;;5094962;28;20373;-77
2022/09/26 14:51:40;;;;;;;1.08;0.52;;;;;;;;;;5094588;28;20095;-76
2022/09/26 14:54:18;;;;;;;2.92;0.73;;;;;;;;;;5096274;28;20052;-77
2022/09/26 14:56:47;;;;;;;1.00;0.70;;;;;;;;;;5096118;28;20032;-77
2022/09/26 14:59:28;;;;;;;1.75;0.57;;;;;;;;;;5096250;28;20024;-76
2022/09/26 15:02:18;;;;;;;1.33;0.70;;;;;;;;;;5096044;28;20115;-76
2022/09/26 15:04:49;;;;;;;2.00;0.88;;;;;;;;;;5095808;28;20059;-76
2022/09/26 15:07:23;;;;;;;3.33;0.80;;;;;;;;;;5096182;28;20027;-77
2022/09/26 15:09:53;;;;;;;;;;;;;;;;;;5095002;28;20024;-77
2022/09/26 15:12:38;;;;;;;1.35;0.70;;;;;;;;;;5095996;28;19912;-77
2022/09/26 15:15:27;;;;;;;1.90;0.77;;;;;;;;;;5096298;28;20122;-77
2022/09/26 15:17:58;;;;;;;1.88;0.73;;;;;;;;;;5094896;28;20438;-77
2022/09/26 15:20:25;;;;;;;2.15;0.90;;;;;;;;;;5094784;28;20501;-77
2022/09/26 15:22:55;;;;;;;2.58;0.75;;;;;;;;;;5096014;28;20047;-77
2022/09/26 15:25:24;;;;;;;0.98;0.75;;;;;;;;;;5096088;28;20079;-77